createdAt,value
2023-05-13T00:00:26.834Z,10.20
2023-05-13T00:02:53.656Z,10.37
2023-05-13T00:05:20.460Z,10.57
2023-05-13T00:07:47.265Z,10.90
2023-05-13T00:10:14.210Z,10.70
2023-05-13T00:12:41.025Z,11.43
2023-05-13T00:15:08.242Z,11.00
2023-05-13T00:17:35.162Z,11.07
2023-05-13T00:20:01.978Z,11.53
2023-05-13T00:22:28.746Z,11.10
2023-05-13T00:24:55.654Z,10.93
2023-05-13T00:27:22.440Z,11.80
2023-05-13T00:29:49.198Z,11.60
2023-05-13T00:32:16.099Z,11.00
2023-05-13T00:34:42.839Z,11.70
2023-05-13T00:37:11.031Z,10.80
2023-05-13T00:39:38.159Z,11.47
2023-05-13T00:42:05.965Z,11.60
2023-05-13T00:44:32.855Z,11.30
2023-05-13T00:46:59.663Z,11.77
2023-05-13T00:49:26.564Z,12.17
2023-05-13T00:51:55.221Z,11.90
2023-05-13T00:54:22.044Z,10.77
2023-05-13T00:56:48.798Z,11.97
2023-05-13T00:59:16.036Z,12.40
2023-05-13T01:02:08.043Z,12.43
2023-05-13T01:04:46.249Z,11.90
2023-05-13T01:07:50.846Z,11.93
2023-05-13T01:10:44.774Z,12.53
2023-05-13T01:13:13.938Z,11.50
2023-05-13T01:15:48.794Z,12.80
2023-05-13T01:18:25.112Z,12.77
2023-05-13T01:20:51.908Z,12.60
2023-05-13T01:23:18.593Z,13.10
2023-05-13T01:25:45.360Z,12.80
2023-05-13T01:28:12.272Z,13.33
2023-05-13T01:30:39.612Z,13.40
2023-05-13T01:33:06.752Z,12.80
2023-05-13T01:35:34.163Z,13.30
2023-05-13T01:38:02.784Z,13.20
2023-05-13T01:40:32.713Z,13.90
2023-05-13T01:43:00.703Z,13.23
2023-05-13T01:45:30.932Z,13.83
2023-05-13T01:47:57.736Z,13.47
2023-05-13T01:50:24.930Z,13.47
2023-05-13T01:52:51.920Z,13.03
2023-05-13T01:55:19.107Z,13.37
2023-05-13T01:57:46.138Z,13.60
2023-05-13T02:00:13.428Z,14.03
2023-05-13T02:02:40.217Z,13.60
2023-05-13T02:05:07.362Z,14.50
2023-05-13T02:07:34.535Z,15.27
2023-05-13T02:10:01.284Z,14.10
2023-05-13T02:12:28.328Z,14.00
2023-05-13T02:14:55.757Z,14.20
2023-05-13T02:17:22.670Z,14.53
2023-05-13T02:19:50.231Z,14.60
2023-05-13T02:22:16.970Z,14.47
2023-05-13T02:24:43.722Z,14.33
2023-05-13T02:27:12.717Z,14.13
2023-05-13T02:29:39.411Z,13.10
2023-05-13T02:32:06.511Z,14.27
2023-05-13T02:34:33.385Z,13.70
2023-05-13T02:37:00.118Z,13.07
2023-05-13T02:39:26.997Z,13.17
2023-05-13T02:41:53.691Z,13.80
2023-05-13T02:44:20.451Z,13.23
2023-05-13T02:46:47.170Z,13.17
2023-05-13T02:49:14.097Z,13.20
2023-05-13T02:51:41.003Z,13.70
2023-05-13T02:54:07.728Z,13.43
2023-05-13T02:56:34.493Z,12.23
2023-05-13T02:59:01.196Z,12.87
2023-05-13T03:01:28.019Z,14.23
2023-05-13T03:03:54.801Z,13.30
2023-05-13T03:06:21.533Z,13.63
2023-05-13T03:08:48.205Z,13.43
2023-05-13T03:11:15.033Z,13.00
2023-05-13T03:13:41.860Z,13.50
2023-05-13T03:16:09.520Z,13.57
2023-05-13T03:18:36.330Z,14.07
2023-05-13T03:21:03.147Z,13.47
2023-05-13T03:23:30.086Z,14.17
2023-05-13T03:25:58.010Z,13.30
2023-05-13T03:28:24.796Z,12.93
2023-05-13T03:30:51.743Z,13.30
2023-05-13T03:33:18.627Z,12.63
2023-05-13T03:35:45.762Z,12.53
2023-05-13T03:38:12.498Z,12.90
2023-05-13T03:40:39.365Z,14.60
2023-05-13T03:43:06.149Z,13.70
2023-05-13T03:45:32.907Z,13.27
2023-05-13T03:47:59.685Z,14.80
2023-05-13T03:50:26.570Z,13.37
2023-05-13T03:52:53.316Z,13.00
2023-05-13T03:55:20.209Z,13.40
2023-05-13T03:57:49.323Z,12.90
2023-05-13T04:00:16.632Z,14.77
2023-05-13T04:02:43.550Z,14.10
2023-05-13T04:05:10.991Z,13.43
2023-05-13T04:07:37.846Z,13.80
2023-05-13T04:10:05.053Z,13.40
2023-05-13T04:12:33.351Z,14.47
2023-05-13T04:15:00.257Z,13.87
2023-05-13T04:17:27.696Z,13.07
2023-05-13T04:19:55.011Z,12.67
2023-05-13T04:22:22.197Z,13.37
2023-05-13T04:24:52.004Z,12.57
2023-05-13T04:27:18.926Z,13.57
2023-05-13T04:29:45.629Z,13.20
2023-05-13T04:32:16.121Z,13.47
2023-05-13T04:34:42.977Z,13.47
2023-05-13T04:37:09.695Z,13.60
2023-05-13T04:39:36.416Z,12.70
2023-05-13T04:42:03.422Z,13.40
2023-05-13T04:44:30.140Z,12.93
2023-05-13T04:46:56.905Z,12.67
2023-05-13T04:49:23.674Z,12.50
2023-05-13T04:51:50.825Z,12.50
2023-05-13T04:54:17.879Z,12.63
2023-05-13T04:56:44.649Z,12.97
2023-05-13T04:59:11.493Z,12.57
2023-05-13T05:01:38.263Z,12.40
2023-05-13T05:04:05.962Z,13.90
2023-05-13T05:06:33.430Z,13.40
2023-05-13T05:09:00.389Z,13.03
2023-05-13T05:11:27.127Z,13.33
2023-05-13T05:13:53.842Z,13.90
2023-05-13T05:16:20.925Z,14.07
2023-05-13T05:18:47.791Z,14.30
2023-05-13T05:21:14.525Z,13.33
2023-05-13T05:23:41.327Z,13.00
2023-05-13T05:26:12.073Z,12.43
2023-05-13T05:28:40.197Z,12.70
2023-05-13T05:31:07.325Z,11.97
2023-05-13T05:33:34.175Z,11.83
2023-05-13T05:36:00.884Z,11.90
2023-05-13T05:38:27.889Z,11.57
2023-05-13T05:40:54.668Z,11.73
2023-05-13T05:43:21.507Z,10.90
2023-05-13T05:45:48.249Z,10.73
2023-05-13T05:48:15.031Z,10.10
2023-05-13T05:50:41.967Z,10.03
2023-05-13T05:53:08.724Z,9.27
2023-05-13T05:55:35.539Z,10.60
2023-05-13T05:58:06.411Z,9.60
2023-05-13T06:00:33.410Z,9.63
2023-05-13T06:03:00.484Z,9.10
2023-05-13T06:05:27.354Z,9.03
2023-05-13T06:07:54.543Z,9.23
2023-05-13T06:10:21.577Z,9.03
2023-05-13T06:12:48.558Z,8.67
2023-05-13T06:15:15.289Z,9.13
2023-05-13T06:17:42.151Z,9.73
2023-05-13T06:20:09.334Z,8.63
2023-05-13T06:22:36.067Z,9.10
2023-05-13T06:25:02.878Z,9.00
2023-05-13T06:27:29.711Z,8.67
2023-05-13T06:29:56.448Z,8.50
2023-05-13T06:32:23.231Z,8.40
2023-05-13T06:34:54.576Z,9.30
2023-05-13T06:37:22.607Z,8.33
2023-05-13T06:39:49.495Z,8.20
2023-05-13T06:42:16.204Z,8.77
2023-05-13T06:44:42.948Z,8.63
2023-05-13T06:47:14.769Z,8.00
2023-05-13T06:49:42.257Z,8.73
2023-05-13T06:52:09.892Z,8.13
2023-05-13T06:54:36.974Z,8.10
2023-05-13T06:57:07.452Z,8.17
2023-05-13T06:59:35.291Z,8.33
2023-05-13T07:02:01.987Z,8.27
2023-05-13T07:04:30.208Z,7.53
2023-05-13T07:06:57.442Z,8.00
2023-05-13T07:09:24.257Z,7.90
2023-05-13T07:11:51.075Z,7.83
2023-05-13T07:14:17.893Z,8.57
2023-05-13T07:16:44.741Z,7.53
2023-05-13T07:19:11.534Z,8.10
2023-05-13T07:21:38.992Z,8.13
2023-05-13T07:24:05.888Z,7.70
2023-05-13T07:26:32.666Z,7.33
2023-05-13T07:28:59.645Z,7.90
2023-05-13T07:31:26.657Z,7.80
2023-05-13T07:33:53.683Z,7.43
2023-05-13T07:36:20.489Z,7.90
2023-05-13T07:38:47.242Z,7.23
2023-05-13T07:41:14.029Z,7.13
2023-05-13T07:43:41.182Z,7.60
2023-05-13T07:46:08.371Z,7.87
2023-05-13T07:48:35.079Z,7.27
2023-05-13T07:51:01.856Z,7.73
2023-05-13T07:53:28.677Z,8.07
2023-05-13T07:55:55.511Z,6.70
2023-05-13T07:58:22.382Z,7.60
2023-05-13T08:00:52.033Z,7.77
2023-05-13T08:03:19.073Z,8.37
2023-05-13T08:05:47.953Z,7.03
2023-05-13T08:08:14.802Z,7.40
2023-05-13T08:10:41.542Z,7.57
2023-05-13T08:13:08.310Z,8.17
2023-05-13T08:15:35.140Z,8.37
2023-05-13T08:18:01.906Z,8.30
2023-05-13T08:20:30.121Z,8.97
2023-05-13T08:22:58.300Z,8.07
2023-05-13T08:25:25.332Z,7.73
2023-05-13T08:27:52.135Z,8.27
2023-05-13T08:30:18.919Z,8.27
2023-05-13T08:32:45.959Z,7.80
2023-05-13T08:35:12.736Z,8.07
2023-05-13T08:37:39.827Z,6.77
2023-05-13T08:40:08.282Z,6.83
2023-05-13T08:42:39.776Z,7.77
2023-05-13T08:45:08.585Z,6.90
2023-05-13T08:47:51.268Z,7.30
2023-05-13T08:50:19.599Z,7.10
2023-05-13T08:52:46.507Z,6.73
2023-05-13T08:55:13.919Z,7.00
2023-05-13T08:57:41.409Z,7.40
2023-05-13T09:00:08.611Z,6.47
2023-05-13T09:02:35.444Z,7.10
2023-05-13T09:05:06.971Z,7.40
2023-05-13T09:07:38.033Z,7.40
2023-05-13T09:10:06.643Z,7.60
2023-05-13T09:12:46.741Z,7.80
2023-05-13T09:15:20.578Z,7.10
2023-05-13T09:17:53.211Z,6.90
2023-05-13T09:20:21.440Z,7.50
2023-05-13T09:23:00.596Z,6.97
2023-05-13T09:25:28.492Z,6.53
2023-05-13T09:28:00.446Z,7.50
2023-05-13T09:30:54.579Z,8.57
2023-05-13T09:33:21.348Z,6.50
2023-05-13T09:35:54.204Z,7.33
2023-05-13T09:38:32.177Z,7.77
2023-05-13T09:41:00.958Z,7.20
2023-05-13T09:43:32.758Z,7.90
2023-05-13T09:46:04.739Z,7.00
2023-05-13T09:48:35.356Z,6.80
2023-05-13T09:51:02.182Z,8.27
2023-05-13T09:53:29.055Z,7.30
2023-05-13T09:55:57.505Z,7.83
2023-05-13T09:58:27.950Z,7.90
2023-05-13T10:00:55.267Z,6.53
2023-05-13T10:03:22.513Z,7.37
2023-05-13T10:05:52.658Z,6.97
2023-05-13T10:08:19.676Z,6.50
2023-05-13T10:10:48.052Z,7.83
2023-05-13T10:13:17.292Z,6.80
2023-05-13T10:15:47.070Z,7.20
2023-05-13T10:18:15.154Z,6.53
2023-05-13T10:20:42.434Z,7.07
2023-05-13T10:23:10.341Z,6.97
2023-05-13T10:25:38.139Z,7.00
2023-05-13T10:28:05.498Z,6.60
2023-05-13T10:30:33.637Z,6.83
2023-05-13T10:33:01.423Z,6.87
2023-05-13T10:35:33.915Z,6.13
2023-05-13T10:38:35.910Z,6.50
2023-05-13T10:41:50.242Z,6.80
2023-05-13T10:44:19.497Z,6.43
2023-05-13T10:46:48.416Z,6.40
2023-05-13T10:49:18.531Z,6.23
2023-05-13T10:51:49.954Z,6.83
2023-05-13T10:54:21.110Z,6.00
2023-05-13T10:56:59.382Z,6.43
2023-05-13T10:59:30.408Z,5.90
2023-05-13T11:01:57.422Z,7.30
2023-05-13T11:04:24.246Z,7.20
2023-05-13T11:06:53.057Z,6.60
2023-05-13T11:09:22.948Z,6.97
2023-05-13T11:12:00.446Z,6.77
2023-05-13T11:14:27.997Z,7.00
2023-05-13T11:17:00.697Z,6.20
2023-05-13T11:19:29.553Z,7.20
2023-05-13T11:21:58.389Z,7.13
2023-05-13T11:24:26.222Z,6.50
2023-05-13T11:26:58.887Z,6.83
2023-05-13T11:29:31.177Z,6.27
2023-05-13T11:32:00.610Z,6.70
2023-05-13T11:34:28.338Z,6.07
2023-05-13T11:37:04.050Z,6.67
2023-05-13T11:39:32.028Z,6.73
2023-05-13T11:42:01.578Z,6.33
2023-05-13T11:44:28.538Z,7.40
2023-05-13T11:47:00.415Z,6.70
2023-05-13T11:49:39.376Z,6.83
2023-05-13T11:52:06.127Z,6.40
2023-05-13T11:54:39.957Z,6.70
2023-05-13T11:57:14.956Z,6.47
2023-05-13T11:59:48.018Z,6.53
2023-05-13T12:02:15.156Z,6.73
2023-05-13T12:04:44.367Z,6.50
2023-05-13T12:07:14.207Z,7.10
2023-05-13T12:09:40.911Z,7.00
2023-05-13T12:12:08.044Z,6.90
2023-05-13T12:14:35.105Z,6.97
2023-05-13T12:17:02.526Z,7.00
2023-05-13T12:19:29.293Z,6.20
2023-05-13T12:21:56.059Z,6.30
2023-05-13T12:24:23.607Z,6.57
2023-05-13T12:26:50.476Z,6.10
2023-05-13T12:29:17.245Z,5.40
2023-05-13T12:32:03.599Z,5.80
2023-05-13T12:34:32.239Z,5.70
2023-05-13T12:37:12.886Z,5.53
2023-05-13T12:39:43.432Z,5.87
2023-05-13T12:42:17.758Z,5.43
2023-05-13T12:44:45.678Z,5.60
2023-05-13T12:47:15.450Z,5.70
2023-05-13T12:49:55.158Z,5.27
2023-05-13T12:52:22.200Z,7.20
2023-05-13T12:54:49.054Z,6.10
2023-05-13T12:57:17.406Z,6.00
2023-05-13T12:59:47.844Z,6.00
2023-05-13T13:02:14.683Z,5.90
2023-05-13T13:04:41.428Z,5.80
2023-05-13T13:07:12.722Z,5.83
2023-05-13T13:09:39.580Z,5.77
2023-05-13T13:12:06.711Z,6.13
2023-05-13T13:14:33.759Z,7.73
2023-05-13T13:17:00.511Z,5.70
2023-05-13T13:19:27.233Z,6.30
2023-05-13T13:21:54.051Z,7.13
2023-05-13T13:24:20.822Z,5.80
2023-05-13T13:26:47.596Z,7.40
2023-05-13T13:29:14.671Z,5.87
2023-05-13T13:31:41.492Z,5.60
2023-05-13T13:34:10.381Z,5.90
2023-05-13T13:36:37.104Z,5.53
2023-05-13T13:39:03.942Z,5.40
2023-05-13T13:41:30.780Z,5.67
2023-05-13T13:43:57.590Z,5.30
2023-05-13T13:46:24.487Z,5.13
2023-05-13T13:48:51.278Z,5.37
2023-05-13T13:51:17.999Z,6.10
2023-05-13T13:53:44.747Z,5.70
2023-05-13T13:56:11.492Z,5.47
2023-05-13T13:58:38.296Z,6.20
2023-05-13T14:01:05.124Z,6.00
2023-05-13T14:03:32.049Z,5.73
2023-05-13T14:05:59.088Z,6.97
2023-05-13T14:08:25.845Z,6.60
2023-05-13T14:10:52.665Z,4.60
2023-05-13T14:13:19.474Z,8.60
2023-05-13T14:15:46.240Z,5.07
2023-05-13T14:18:13.037Z,4.67
2023-05-13T14:20:39.824Z,4.50
2023-05-13T14:23:06.622Z,5.03
2023-05-13T14:25:33.411Z,4.70
2023-05-13T14:28:00.232Z,4.60
2023-05-13T14:30:27.747Z,4.50
2023-05-13T14:32:54.720Z,4.80
2023-05-13T14:35:21.481Z,4.80
2023-05-13T14:37:48.278Z,4.53
2023-05-13T14:40:15.018Z,4.70
2023-05-13T14:42:41.841Z,4.53
2023-05-13T14:45:10.610Z,4.93
2023-05-13T14:47:39.298Z,4.87
2023-05-13T14:50:06.733Z,5.33
2023-05-13T14:52:33.493Z,4.53
2023-05-13T14:55:00.249Z,5.00
2023-05-13T14:57:27.706Z,4.70
2023-05-13T14:59:54.505Z,4.87
2023-05-13T15:02:21.417Z,5.07
2023-05-13T15:04:48.203Z,5.13
2023-05-13T15:07:15.325Z,4.53
2023-05-13T15:09:42.120Z,4.80
2023-05-13T15:12:09.357Z,4.90
2023-05-13T15:14:36.081Z,4.60
2023-05-13T15:17:02.935Z,5.30
2023-05-13T15:19:30.650Z,4.80
2023-05-13T15:21:57.487Z,5.33
2023-05-13T15:24:24.227Z,4.43
2023-05-13T15:26:50.966Z,5.07
2023-05-13T15:29:17.930Z,4.77
2023-05-13T15:31:44.726Z,4.90
2023-05-13T15:34:11.468Z,5.40
2023-05-13T15:36:38.159Z,5.37
2023-05-13T15:39:04.976Z,5.00
2023-05-13T15:41:31.744Z,4.80
2023-05-13T15:43:58.506Z,5.57
2023-05-13T15:46:25.749Z,5.43
2023-05-13T15:48:52.584Z,5.43
2023-05-13T15:51:19.607Z,5.37
2023-05-13T15:53:46.573Z,5.90
2023-05-13T15:56:13.317Z,4.80
2023-05-13T15:58:40.054Z,5.03
2023-05-13T16:01:06.981Z,4.47
2023-05-13T16:03:33.712Z,4.70
2023-05-13T16:06:00.588Z,5.30
2023-05-13T16:08:27.383Z,4.93
2023-05-13T16:10:54.105Z,5.50
2023-05-13T16:13:21.571Z,5.10
2023-05-13T16:15:48.360Z,4.80
2023-05-13T16:18:15.127Z,5.17
2023-05-13T16:20:41.921Z,5.23
2023-05-13T16:23:08.697Z,4.80
2023-05-13T16:25:35.494Z,5.03
2023-05-13T16:28:02.946Z,5.70
2023-05-13T16:30:29.796Z,5.07
2023-05-13T16:32:56.827Z,5.77
2023-05-13T16:35:23.751Z,6.93
2023-05-13T16:37:50.952Z,5.77
2023-05-13T16:40:17.764Z,6.00
2023-05-13T16:42:44.538Z,4.80
2023-05-13T16:45:11.522Z,5.30
2023-05-13T16:47:38.698Z,5.10
2023-05-13T16:50:06.584Z,5.40
2023-05-13T16:52:34.164Z,4.90
2023-05-13T16:55:00.938Z,5.00
2023-05-13T16:57:27.794Z,4.77
2023-05-13T16:59:54.532Z,5.30
2023-05-13T17:02:21.270Z,5.20
2023-05-13T17:04:48.011Z,5.97
2023-05-13T17:07:15.059Z,5.30
2023-05-13T17:09:41.809Z,4.90
2023-05-13T17:12:08.773Z,4.80
2023-05-13T17:14:35.755Z,4.70
2023-05-13T17:17:03.224Z,4.50
2023-05-13T17:19:30.386Z,4.10
2023-05-13T17:21:57.150Z,4.00
2023-05-13T17:24:23.904Z,4.10
2023-05-13T17:26:50.686Z,4.27
2023-05-13T17:29:17.426Z,4.00
2023-05-13T17:31:44.311Z,4.40
2023-05-13T17:34:11.246Z,4.33
2023-05-13T17:36:38.050Z,4.40
2023-05-13T17:39:04.848Z,4.00
2023-05-13T17:41:31.653Z,4.13
2023-05-13T17:43:58.451Z,4.07
2023-05-13T17:46:25.439Z,4.30
2023-05-13T17:48:52.299Z,4.00
2023-05-13T17:51:19.139Z,4.07
2023-05-13T17:53:45.879Z,3.90
2023-05-13T17:56:19.494Z,4.57
2023-05-13T17:58:46.242Z,3.97
2023-05-13T18:01:12.987Z,5.07
2023-05-13T18:03:39.747Z,4.20
2023-05-13T18:06:06.689Z,4.20
2023-05-13T18:08:33.581Z,4.00
2023-05-13T18:11:00.388Z,4.37
2023-05-13T18:13:27.113Z,4.30
2023-05-13T18:15:53.945Z,4.27
2023-05-13T18:18:20.771Z,4.57
2023-05-13T18:20:47.608Z,4.10
2023-05-13T18:23:14.433Z,4.93
2023-05-13T18:25:52.417Z,5.13
2023-05-13T18:28:22.154Z,5.17
2023-05-13T18:30:48.898Z,4.10
2023-05-13T18:33:15.683Z,6.10
2023-05-13T18:35:42.479Z,5.10
2023-05-13T18:38:09.311Z,4.80
2023-05-13T18:40:36.067Z,4.80
2023-05-13T18:43:02.821Z,4.47
2023-05-13T18:45:29.677Z,4.30
2023-05-13T18:47:56.506Z,5.37
2023-05-13T18:50:24.883Z,4.40
2023-05-13T18:52:51.698Z,5.13
2023-05-13T18:55:18.556Z,4.30
2023-05-13T18:57:45.581Z,4.63
2023-05-13T19:00:13.280Z,4.27
2023-05-13T19:02:40.120Z,5.50
2023-05-13T19:05:07.700Z,5.60
2023-05-13T19:07:34.413Z,8.30
2023-05-13T19:10:01.244Z,8.90
2023-05-13T19:12:28.167Z,7.40
2023-05-13T19:14:54.955Z,7.50
2023-05-13T19:17:21.910Z,8.10
2023-05-13T19:19:48.717Z,7.67
2023-05-13T19:22:15.407Z,6.87
2023-05-13T19:24:42.223Z,5.50
2023-05-13T19:27:09.226Z,7.30
2023-05-13T19:29:36.142Z,13.67
2023-05-13T19:32:02.909Z,25.13
2023-05-13T19:34:29.598Z,21.70
2023-05-13T19:36:56.468Z,17.80
2023-05-13T19:39:23.164Z,12.60
2023-05-13T19:41:49.989Z,11.60
2023-05-13T19:44:16.742Z,9.70
2023-05-13T19:46:43.598Z,9.47
2023-05-13T19:49:10.365Z,9.60
2023-05-13T19:51:37.122Z,8.17
2023-05-13T19:54:04.012Z,6.67
2023-05-13T19:56:30.873Z,6.00
2023-05-13T19:58:57.624Z,6.50
2023-05-13T20:01:24.804Z,7.60
2023-05-13T20:03:51.700Z,9.63
2023-05-13T20:06:18.524Z,10.20
2023-05-13T20:08:45.895Z,10.17
2023-05-13T20:11:12.872Z,8.90
2023-05-13T20:13:39.672Z,8.60
2023-05-13T20:16:06.418Z,7.90
2023-05-13T20:18:33.837Z,8.20
2023-05-13T20:21:01.239Z,7.60
2023-05-13T20:23:27.964Z,8.03
2023-05-13T20:25:56.875Z,7.33
2023-05-13T20:28:24.345Z,7.63
2023-05-13T20:30:54.359Z,7.57
2023-05-13T20:33:21.197Z,8.20
2023-05-13T20:35:48.373Z,7.90
2023-05-13T20:38:15.118Z,7.63
2023-05-13T20:40:41.964Z,7.60
2023-05-13T20:43:08.850Z,7.73
2023-05-13T20:45:39.317Z,7.50
2023-05-13T20:48:06.755Z,7.30
2023-05-13T20:50:33.591Z,7.40
2023-05-13T20:53:00.637Z,8.60
2023-05-13T20:55:27.653Z,9.70
2023-05-13T20:57:54.832Z,9.70
2023-05-13T21:00:22.196Z,9.57
2023-05-13T21:02:50.372Z,9.23
2023-05-13T21:05:17.350Z,9.30
2023-05-13T21:07:44.148Z,8.50
2023-05-13T21:10:11.058Z,8.83
2023-05-13T21:12:37.923Z,8.20
2023-05-13T21:15:05.069Z,8.63
2023-05-13T21:17:31.832Z,9.47
2023-05-13T21:19:58.636Z,8.90
2023-05-13T21:22:25.423Z,8.40
2023-05-13T21:24:52.233Z,9.77
2023-05-13T21:27:19.086Z,8.90
2023-05-13T21:29:45.869Z,11.10
2023-05-13T21:32:12.729Z,8.57
2023-05-13T21:34:39.533Z,7.60
2023-05-13T21:37:06.334Z,8.00
2023-05-13T21:39:33.056Z,7.90
2023-05-13T21:42:00.695Z,7.17
2023-05-13T21:44:28.923Z,8.33
2023-05-13T21:46:55.704Z,9.20
2023-05-13T21:49:22.647Z,10.53
2023-05-13T21:51:49.573Z,8.87
2023-05-13T21:54:16.545Z,9.03
2023-05-13T21:56:43.317Z,10.20
2023-05-13T21:59:10.144Z,9.30
2023-05-13T22:01:36.886Z,11.20
2023-05-13T22:04:03.761Z,8.20
2023-05-13T22:06:30.977Z,8.90
2023-05-13T22:08:57.763Z,10.13
2023-05-13T22:11:24.504Z,8.97
2023-05-13T22:13:51.260Z,8.70
2023-05-13T22:16:18.158Z,9.67
2023-05-13T22:18:45.044Z,11.87
2023-05-13T22:21:11.842Z,13.10
2023-05-13T22:23:38.593Z,14.00
2023-05-13T22:26:05.440Z,11.97
2023-05-13T22:28:32.208Z,13.00
2023-05-13T22:30:58.977Z,13.10
2023-05-13T22:33:26.005Z,13.47
2023-05-13T22:35:52.782Z,13.30
2023-05-13T22:38:19.510Z,12.70
2023-05-13T22:40:46.291Z,13.17
2023-05-13T22:43:13.073Z,12.50
2023-05-13T22:45:39.887Z,12.23
2023-05-13T22:48:06.798Z,10.80
2023-05-13T22:50:33.606Z,12.50
2023-05-13T22:53:00.360Z,12.63
2023-05-13T22:55:27.140Z,17.37
2023-05-13T22:57:53.945Z,17.60
2023-05-13T23:00:20.849Z,19.67
2023-05-13T23:02:47.793Z,14.67
2023-05-13T23:05:14.655Z,13.37
2023-05-13T23:07:41.363Z,11.53
2023-05-13T23:10:08.465Z,11.50
2023-05-13T23:12:35.253Z,10.97
2023-05-13T23:15:02.222Z,11.10
2023-05-13T23:17:29.118Z,11.83
2023-05-13T23:19:55.991Z,10.97
2023-05-13T23:22:23.155Z,14.07
2023-05-13T23:24:49.974Z,11.57
2023-05-13T23:27:16.691Z,11.43
2023-05-13T23:29:43.454Z,14.30
2023-05-13T23:32:10.287Z,12.70
2023-05-13T23:34:37.069Z,11.77
2023-05-13T23:37:03.862Z,11.73
2023-05-13T23:39:30.621Z,11.50
2023-05-13T23:41:57.333Z,11.50
2023-05-13T23:44:24.043Z,11.33
2023-05-13T23:46:50.920Z,11.57
2023-05-13T23:49:17.709Z,11.10
2023-05-13T23:51:44.485Z,12.40
2023-05-13T23:54:11.266Z,12.43
2023-05-13T23:56:38.075Z,10.77
2023-05-13T23:59:05.704Z,11.57
